CheckWX is a tool to help pilots better visualize weather data.  It is not intended as a substitute for an official pre-flight weather briefing.

05:54:43 UTC

EGXP METAR
RAF Scampton Airport
Scampton, United Kingdom
Current

1 hour ago

EGXP 200450Z AUTO 21012KT 9999 // OVC050/// 07/06 Q1014
Observed
Feb-20 @ 04:50 UTC
Wind
  • 210° at 12 KTS
Visibility
10,000+ meters
Flight Rules
VFR
Cloud Levels
  • Overcast at 5,000' AGL
Temperature
C / 45°F
Dewpoint
C / 43°F
Humidity
93%
Altimeter
29.94" Hg
Pressure
1013.92 hPa
Previous

2 hours ago

EGXP 200350Z AUTO 22012KT 9999 // OVC050/// 07/06 Q1014
Observed
Feb-20 @ 03:50 UTC
Wind
  • 220° at 12 KTS
Visibility
10,000+ meters
Flight Rules
VFR
Cloud Levels
  • Overcast at 5,000' AGL
Temperature
C / 45°F
Dewpoint
C / 43°F
Humidity
93%
Altimeter
29.94" Hg
Pressure
1013.92 hPa
Previous

3 hours ago

EGXP 200250Z AUTO 21012KT 9999 // OVC060/// 07/06 Q1014
Observed
Feb-20 @ 02:50 UTC
Wind
  • 210° at 12 KTS
Visibility
10,000+ meters
Flight Rules
VFR
Cloud Levels
  • Overcast at 6,000' AGL
Temperature
C / 45°F
Dewpoint
C / 43°F
Humidity
93%
Altimeter
29.94" Hg
Pressure
1013.92 hPa